Time;durP1;ratioP1;P1;durP2;ratioP2;P2;SDS_P1;SDS_P2;PMS_P1;PMS_P2;Temp;Humidity;BMP_temperature;BMP_pressure;BME280_temperature;BME280_humidity;BME280_pressure;Samples;Min_cycle;Max_cycle;Signal;HPM_P1;HPM_P2
2022/06/06 00:02:04;;;;;;;9.63;6.80;;;15.40;99.90;;;;;;5071523;28;19987;-51
2022/06/06 00:04:30;;;;;;;9.38;6.53;;;15.60;99.90;;;;;;5072273;28;20048;-51
2022/06/06 00:06:58;;;;;;;9.05;6.60;;;15.60;99.90;;;;;;5072172;28;20495;-50
2022/06/06 00:09:25;;;;;;;9.95;6.63;;;15.60;99.90;;;;;;5072361;28;20032;-51
2022/06/06 00:11:51;;;;;;;8.98;5.97;;;15.40;99.90;;;;;;5072047;28;20044;-49
2022/06/06 00:14:18;;;;;;;8.73;6.25;;;15.20;99.90;;;;;;5072189;28;20087;-51
2022/06/06 00:16:44;;;;;;;10.05;6.57;;;15.00;99.90;;;;;;5072246;28;20464;-49
2022/06/06 00:19:11;;;;;;;11.52;7.25;;;15.10;99.90;;;;;;5071772;28;20048;-48
2022/06/06 00:21:38;;;;;;;10.23;7.53;;;15.40;99.90;;;;;;5071718;28;20048;-51
2022/06/06 00:24:05;;;;;;;11.88;7.80;;;15.40;99.90;;;;;;5072010;28;20037;-50
2022/06/06 00:26:32;;;;;;;12.57;8.20;;;15.50;99.90;;;;;;5071882;28;20040;-51
2022/06/06 00:28:58;;;;;;;10.40;8.00;;;15.30;99.90;;;;;;5071695;28;20040;-52
2022/06/06 00:36:58;;;;;;;9.70;7.40;;;15.40;99.90;;;;;;5071712;28;20110;-48
2022/06/06 00:39:24;;;;;;;11.85;7.53;;;15.00;99.90;;;;;;5071514;28;20037;-47
2022/06/06 00:41:52;;;;;;;10.80;7.70;;;15.50;99.90;;;;;;5071367;28;20098;-47
2022/06/06 00:44:21;;;;;;;11.27;8.00;;;15.30;99.90;;;;;;5053783;28;20032;-47
2022/06/06 00:47:03;;;;;;;10.68;7.07;;;15.40;99.90;;;;;;5071651;28;20487;-48
2022/06/06 00:49:34;;;;;;;9.98;7.45;;;15.20;99.90;;;;;;5071492;28;20067;-52
2022/06/06 00:52:01;;;;;;;10.05;8.25;;;15.40;99.90;;;;;;5070989;28;20036;-50
2022/06/06 00:54:29;;;;;;;12.00;8.90;;;15.50;99.90;;;;;;5052298;28;20507;-50
2022/06/06 00:57:00;;;;;;;14.23;10.15;;;15.00;99.90;;;;;;5071558;28;20040;-48
2022/06/06 00:59:29;;;;;;;20.52;14.35;;;15.50;99.90;;;;;;5071099;28;20090;-49
2022/06/06 01:01:56;;;;;;;24.00;15.48;;;15.20;99.90;;;;;;5071157;28;20047;-47
2022/06/06 01:04:25;;;;;;;22.17;13.45;;;15.60;99.90;;;;;;5069914;28;20437;-48
2022/06/06 01:06:52;;;;;;;19.02;12.90;;;15.60;99.90;;;;;;5070787;28;20040;-47
2022/06/06 01:09:20;;;;;;;16.85;11.75;;;15.40;99.90;;;;;;5070757;28;20124;-49
2022/06/06 01:12:03;;;;;;;18.00;13.77;;;15.60;99.90;;;;;;5071024;28;20044;-48
2022/06/06 01:14:35;;;;;;;23.48;15.45;;;15.70;99.90;;;;;;5070932;28;20120;-50
2022/06/06 01:17:29;;;;;;;27.52;18.75;;;15.00;99.90;;;;;;5071144;28;20048;-51
2022/06/06 01:20:16;;;;;;;35.60;23.08;;;15.60;99.90;;;;;;5070526;28;20072;-48
2022/06/06 01:22:56;;;;;;;47.40;26.27;;;15.00;99.90;;;;;;5070067;28;20041;-50
2022/06/06 01:25:52;;;;;;;42.67;23.52;;;15.30;99.90;;;;;;5070730;28;20468;-48
2022/06/06 01:28:48;;;;;;;43.45;24.10;;;14.90;99.90;;;;;;5070719;28;20119;-48
2022/06/06 01:31:32;;;;;;;37.78;21.65;;;15.30;99.90;;;;;;5070934;28;20591;-48
2022/06/06 01:34:00;;;;;;;35.53;20.98;;;14.70;99.90;;;;;;5070649;28;20097;-48
2022/06/06 01:36:29;;;;;;;32.72;20.17;;;15.10;99.90;;;;;;5070388;28;20044;-48
2022/06/06 01:38:58;;;;;;;34.05;19.70;;;14.70;99.90;;;;;;5070650;28;20085;-50
2022/06/06 01:41:56;;;;;;;30.15;19.95;;;15.10;99.90;;;;;;5070516;28;20498;-47
2022/06/06 01:44:33;;;;;;;34.38;20.10;;;15.10;99.90;;;;;;5057095;28;20040;-48
2022/06/06 01:47:03;;;;;;;34.33;20.55;;;14.60;99.90;;;;;;5070694;28;20087;-49
2022/06/06 01:49:31;;;;;;;37.15;22.92;;;14.80;99.90;;;;;;5052559;28;20040;-47
2022/06/06 01:52:07;;;;;;;35.03;22.45;;;14.60;99.90;;;;;;5069941;28;20089;-49
2022/06/06 01:54:33;;;;;;;37.20;23.35;;;14.40;99.90;;;;;;5071268;28;20487;-50
2022/06/06 01:57:02;;;;;;;32.17;22.67;;;14.60;99.90;;;;;;5070297;28;20101;-49
2022/06/06 01:59:28;;;;;;;35.72;22.17;;;14.90;99.90;;;;;;5070503;28;20495;-47
2022/06/06 02:01:54;;;;;;;29.38;19.63;;;14.90;99.90;;;;;;5069195;28;20119;-47
2022/06/06 02:04:19;;;;;;;29.95;18.65;;;14.50;99.90;;;;;;5052308;28;20167;-48
2022/06/06 02:06:46;;;;;;;28.25;18.95;;;14.90;99.90;;;;;;5069966;28;20039;-48
2022/06/06 02:09:12;;;;;;;29.58;16.95;;;14.80;99.90;;;;;;5070478;28;20101;-49
2022/06/06 02:11:39;;;;;;;31.25;19.30;;;14.30;99.90;;;;;;5070435;28;20046;-50
2022/06/06 02:14:05;;;;;;;41.47;21.20;;;14.70;99.90;;;;;;5070235;28;20032;-48
2022/06/06 02:16:31;;;;;;;44.92;22.52;;;14.50;99.90;;;;;;5070365;28;20506;-49
2022/06/06 02:18:57;;;;;;;46.78;24.17;;;14.60;99.90;;;;;;5071162;28;20059;-48
2022/06/06 02:21:23;;;;;;;49.17;24.75;;;14.20;99.90;;;;;;5070726;28;20048;-49
2022/06/06 02:23:48;;;;;;;57.13;26.48;;;14.70;99.90;;;;;;5074156;28;20039;-50
2022/06/06 02:26:15;;;;;;;52.97;25.83;;;14.40;99.90;;;;;;5074142;28;20103;-50
2022/06/06 02:28:41;;;;;;;55.75;27.00;;;14.30;99.90;;;;;;5074169;28;20032;-50
2022/06/06 02:31:08;;;;;;;55.47;25.95;;;14.50;99.90;;;;;;5074348;28;20050;-47
2022/06/06 02:33:35;;;;;;;60.40;28.10;;;14.40;99.90;;;;;;5074067;28;20036;-46
2022/06/06 02:36:00;;;;;;;61.47;27.55;;;14.30;99.90;;;;;;5074271;28;20082;-49
2022/06/06 02:38:27;;;;;;;62.08;27.90;;;13.90;99.90;;;;;;5055846;28;20048;-51
2022/06/06 02:40:53;;;;;;;62.28;29.83;;;14.50;99.90;;;;;;5072801;28;20037;-50
2022/06/06 02:43:19;;;;;;;62.45;29.27;;;14.40;99.90;;;;;;5055682;28;20399;-49
2022/06/06 02:45:46;;;;;;;62.95;27.33;;;14.50;99.90;;;;;;5074074;28;20044;-48
2022/06/06 02:48:13;;;;;;;53.47;25.35;;;14.00;99.90;;;;;;5073840;28;20043;-47
2022/06/06 02:50:39;;;;;;;50.53;23.73;;;14.30;99.90;;;;;;5073842;28;20037;-49
2022/06/06 02:53:05;;;;;;;48.03;21.83;;;14.40;99.90;;;;;;5073024;28;20036;-51
2022/06/06 02:55:34;;;;;;;42.17;17.88;;;13.80;99.90;;;;;;5073623;28;20045;-49
2022/06/06 02:58:01;;;;;;;33.50;16.90;;;14.00;99.90;;;;;;5073696;28;20075;-49
2022/06/06 03:00:30;;;;;;;32.42;15.60;;;13.70;99.90;;;;;;5073473;28;20058;-49
2022/06/06 03:02:55;;;;;;;28.77;14.10;;;14.40;99.90;;;;;;5073559;28;20039;-48
2022/06/06 03:05:21;;;;;;;28.25;13.73;;;13.70;99.90;;;;;;5072945;28;20472;-49
2022/06/06 03:07:53;;;;;;;29.05;14.13;;;13.80;99.90;;;;;;5073258;28;20449;-50
2022/06/06 03:10:51;;;;;;;27.20;13.43;;;14.30;99.90;;;;;;5073277;28;20043;-49
2022/06/06 03:13:58;;;;;;;29.10;13.55;;;13.90;99.90;;;;;;5073039;28;20114;-53
2022/06/06 03:23:20;;;;;;;33.08;13.23;;;14.10;99.90;;;;;;5071808;28;20152;-53
2022/06/06 03:26:03;;;;;;;27.08;12.32;;;13.80;99.90;;;;;;5071744;28;20035;-48
2022/06/06 03:28:56;;;;;;;28.35;12.68;;;13.80;99.90;;;;;;5072017;28;20115;-50
2022/06/06 03:31:46;;;;;;;24.35;12.38;;;13.50;99.90;;;;;;5071691;28;20058;-49
2022/06/06 03:34:35;;;;;;;25.55;11.40;;;14.10;99.90;;;;;;5070989;28;20166;-47
2022/06/06 03:37:06;;;;;;;28.20;12.90;;;14.00;99.90;;;;;;5072072;28;20649;-48
2022/06/06 03:39:53;;;;;;;26.38;11.82;;;13.40;99.90;;;;;;5071619;28;20119;-53
2022/06/06 03:42:35;;;;;;;24.50;12.32;;;13.40;99.90;;;;;;5071578;28;20383;-50
2022/06/06 03:45:07;;;;;;;27.08;12.70;;;13.50;99.90;;;;;;5071691;28;20480;-48
2022/06/06 03:47:57;;;;;;;31.50;14.05;;;13.40;99.90;;;;;;5071408;28;20587;-51
2022/06/06 03:50:42;;;;;;;29.88;14.38;;;14.10;99.90;;;;;;5071768;28;20059;-50
2022/06/06 03:53:21;;;;;;;35.92;15.80;;;14.00;99.90;;;;;;5071025;28;20036;-50
2022/06/06 03:56:06;;;;;;;31.08;14.10;;;13.60;99.90;;;;;;5071581;28;20033;-48
2022/06/06 03:58:32;;;;;;;;;;;13.50;99.90;;;;;;5071892;28;20048;-50
2022/06/06 04:01:02;;;;;;;32.17;15.13;;;13.70;99.90;;;;;;5071241;28;19921;-49
2022/06/06 04:03:28;;;;;;;31.70;15.57;;;13.50;99.90;;;;;;5071410;28;20032;-50
2022/06/06 04:05:56;;;;;;;30.58;14.40;;;14.10;99.90;;;;;;5071292;28;20170;-47
2022/06/06 04:08:21;;;;;;;30.40;15.05;;;13.60;99.90;;;;;;5071292;28;20041;-50
2022/06/06 04:11:05;;;;;;;28.15;15.23;;;14.20;99.90;;;;;;5070093;28;20036;-47
2022/06/06 04:13:39;;;;;;;30.77;14.47;;;14.20;99.90;;;;;;5071057;28;20051;-47
2022/06/06 04:16:31;;;;;;;30.77;15.10;;;13.70;99.90;;;;;;5070844;28;20036;-50
2022/06/06 04:19:34;;;;;;;31.30;15.27;;;14.00;99.90;;;;;;5033138;28;1099854;-51
2022/06/06 04:22:34;;;;;;;28.30;14.50;;;14.20;99.90;;;;;;5071778;28;20041;-48
2022/06/06 04:25:15;;;;;;;32.15;15.13;;;13.70;99.90;;;;;;5071759;28;20037;-49
2022/06/06 04:28:07;;;;;;;24.60;13.57;;;13.80;99.90;;;;;;5071820;28;20119;-50
2022/06/06 04:30:54;;;;;;;26.38;12.75;;;14.10;99.90;;;;;;5071911;28;20418;-49
2022/06/06 04:33:30;;;;;;;27.58;13.30;;;13.70;99.90;;;;;;5071574;28;20044;-49
2022/06/06 04:36:06;;;;;;;27.50;14.18;;;14.20;99.90;;;;;;5071639;28;20032;-49
2022/06/06 04:39:02;;;;;;;27.42;13.45;;;13.60;99.90;;;;;;5052384;28;20554;-50
2022/06/06 04:41:36;;;;;;;26.83;13.10;;;13.80;99.90;;;;;;5070887;28;20037;-50
2022/06/06 04:44:32;;;;;;;27.95;14.45;;;13.70;99.90;;;;;;5071257;28;20036;-49
2022/06/06 04:47:12;;;;;;;30.00;15.27;;;13.90;99.90;;;;;;5071479;28;20467;-48
2022/06/06 04:49:38;;;;;;;30.75;14.43;;;14.10;99.90;;;;;;5071431;28;20507;-51
2022/06/06 04:52:05;;;;;;;29.50;14.70;;;13.80;99.90;;;;;;5071047;28;20403;-49
2022/06/06 04:54:32;;;;;;;28.48;14.73;;;14.30;99.90;;;;;;5070899;28;20077;-51
2022/06/06 04:57:00;;;;;;;30.73;14.40;;;13.80;99.90;;;;;;5071336;28;20353;-50
2022/06/06 04:59:28;;;;;;;32.53;15.90;;;13.70;99.90;;;;;;5071317;28;20037;-47
2022/06/06 05:01:57;;;;;;;29.65;15.27;;;14.10;99.90;;;;;;5070785;28;20041;-49
2022/06/06 05:04:23;;;;;;;28.20;14.80;;;14.20;99.90;;;;;;5071112;28;20035;-50
2022/06/06 05:07:22;;;;;;;29.58;14.30;;;14.20;99.90;;;;;;5070249;28;20036;-52
2022/06/06 05:10:13;;;;;;;27.70;13.70;;;13.80;99.90;;;;;;5071103;28;20419;-48
2022/06/06 05:13:03;;;;;;;24.35;13.02;;;14.00;99.90;;;;;;5071170;28;20491;-47
2022/06/06 05:15:52;;;;;;;23.73;12.55;;;14.00;99.90;;;;;;5069533;28;20048;-49
2022/06/06 05:18:42;;;;;;;27.45;14.32;;;14.30;99.90;;;;;;5051589;28;20060;-49
2022/06/06 05:21:29;;;;;;;28.27;14.70;;;14.20;99.90;;;;;;5069849;28;20360;-48
2022/06/06 05:24:05;;;;;;;29.70;14.57;;;14.10;99.90;;;;;;5070059;28;20044;-47
2022/06/06 05:26:57;;;;;;;27.00;14.43;;;13.80;99.90;;;;;;5069120;28;20039;-47
2022/06/06 05:29:41;;;;;;;31.15;14.75;;;14.30;99.90;;;;;;5069364;28;20048;-49
2022/06/06 05:32:36;;;;;;;29.08;15.40;;;13.90;99.90;;;;;;5051592;28;20068;-48
2022/06/06 05:35:28;;;;;;;28.63;14.75;;;14.40;99.90;;;;;;5067304;28;20487;-49
2022/06/06 05:38:18;;;;;;;33.15;16.00;;;13.90;99.90;;;;;;5070558;28;20119;-54
2022/06/06 05:41:06;;;;;;;28.67;14.90;;;14.10;99.90;;;;;;5070620;28;20095;-48
2022/06/06 05:43:41;;;;;;;30.35;14.68;;;14.20;99.90;;;;;;5035712;28;20044;-47
2022/06/06 05:46:37;;;;;;;30.10;14.10;;;14.50;99.90;;;;;;5069996;28;20472;-49
2022/06/06 05:49:24;;;;;;;29.35;13.43;;;14.20;99.90;;;;;;5070828;28;20093;-51
2022/06/06 05:52:11;;;;;;;27.85;14.10;;;14.20;99.90;;;;;;5069835;28;20067;-51
2022/06/06 05:54:52;;;;;;;27.83;13.38;;;14.60;99.90;;;;;;5070604;28;20036;-47
2022/06/06 05:57:36;;;;;;;24.40;12.70;;;14.60;99.90;;;;;;5070308;28;20189;-50
2022/06/06 06:00:17;;;;;;;28.60;11.80;;;14.70;99.90;;;;;;5070148;28;20115;-48
2022/06/06 06:03:15;;;;;;;26.17;13.52;;;14.80;99.90;;;;;;5070039;28;20047;-50
2022/06/06 06:05:47;;;;;;;26.48;12.63;;;14.50;99.90;;;;;;5070431;28;20036;-50
2022/06/06 06:08:51;;;;;;;25.65;12.70;;;14.60;99.90;;;;;;5070488;28;20044;-50
2022/06/06 06:11:55;;;;;;;28.52;13.55;;;14.90;99.90;;;;;;5070298;28;20043;-50
2022/06/06 06:14:42;;;;;;;23.75;10.70;;;14.90;99.90;;;;;;5050748;28;20044;-47
2022/06/06 06:17:12;;;;;;;22.80;11.02;;;15.00;99.90;;;;;;5066029;28;20055;-50
2022/06/06 06:19:45;;;;;;;22.77;10.90;;;14.90;99.90;;;;;;5065271;28;20454;-51
2022/06/06 06:22:12;;;;;;;23.10;12.32;;;15.10;99.90;;;;;;5065423;28;20048;-49
2022/06/06 06:24:41;;;;;;;21.88;10.57;;;15.10;99.90;;;;;;5066715;28;20115;-52
2022/06/06 06:27:07;;;;;;;24.63;10.73;;;15.10;99.90;;;;;;5064538;28;20025;-48
2022/06/06 06:29:33;;;;;;;22.90;10.85;;;15.30;99.90;;;;;;5048929;28;20043;-52
2022/06/06 06:32:17;;;;;;;23.55;11.50;;;15.40;99.90;;;;;;5063597;28;20123;-50
2022/06/06 06:35:12;;;;;;;23.23;11.43;;;15.50;99.90;;;;;;5063717;28;20052;-48
2022/06/06 06:37:48;;;;;;;;;;;15.20;99.90;;;;;;5067199;28;20162;-50
2022/06/06 06:40:43;;;;;;;19.00;9.48;;;15.10;99.90;;;;;;5066999;28;19920;-51
2022/06/06 06:43:23;;;;;;;19.42;10.15;;;15.20;99.90;;;;;;5066787;28;20080;-50
2022/06/06 06:46:00;;;;;;;20.45;11.65;;;15.30;99.90;;;;;;5065834;28;20028;-49
2022/06/06 06:48:37;;;;;;;24.85;11.88;;;15.20;99.90;;;;;;5066861;28;20029;-50
2022/06/06 06:51:21;;;;;;;24.52;12.02;;;15.20;99.90;;;;;;5066653;28;20392;-50
2022/06/06 06:54:23;;;;;;;19.90;10.70;;;15.20;99.90;;;;;;5048241;28;20047;-51
2022/06/06 06:57:06;;;;;;;21.17;11.63;;;15.40;99.90;;;;;;5066067;28;20049;-48
2022/06/06 07:00:06;;;;;;;24.20;12.20;;;15.30;99.90;;;;;;5065586;28;20082;-50
2022/06/06 07:08:53;;;;;;;27.05;14.00;;;15.30;99.90;;;;;;5067354;28;20475;-49
2022/06/06 07:11:39;;;;;;;28.25;13.63;;;15.40;99.90;;;;;;5069743;28;20241;-48
2022/06/06 07:14:25;;;;;;;32.63;15.38;;;15.60;99.90;;;;;;5070043;28;20033;-51
2022/06/06 07:16:57;;;;;;;33.45;15.48;;;15.70;99.90;;;;;;5070027;28;20109;-51
2022/06/06 07:19:32;;;;;;;30.20;14.25;;;16.00;99.90;;;;;;5067699;28;20071;-50
2022/06/06 07:22:00;;;;;;;25.83;12.65;;;16.10;99.90;;;;;;5066845;28;20519;-50
2022/06/06 07:24:28;;;;;;;23.23;13.18;;;16.00;99.90;;;;;;5068665;28;20447;-49
2022/06/06 07:26:55;;;;;;;29.10;14.43;;;16.10;99.90;;;;;;5069531;28;20490;-50
2022/06/06 07:29:21;;;;;;;17.15;9.52;;;16.00;99.90;;;;;;5070099;28;20036;-48
2022/06/06 07:32:11;;;;;;;18.75;7.72;;;16.00;99.90;;;;;;5069557;28;20425;-49
2022/06/06 07:34:55;;;;;;;18.13;9.85;;;15.90;99.90;;;;;;5069708;28;20040;-50
2022/06/06 07:37:32;;;;;;;15.02;7.80;;;15.80;99.90;;;;;;5069781;28;20076;-49
2022/06/06 07:40:25;;;;;;;12.27;6.70;;;15.90;99.90;;;;;;5067567;28;20040;-49
2022/06/06 07:43:03;;;;;;;11.02;6.00;;;15.80;99.90;;;;;;5068872;28;20044;-51
2022/06/06 07:45:34;;;;;;;12.43;5.75;;;16.00;99.90;;;;;;5069299;28;20032;-50
2022/06/06 07:48:18;;;;;;;11.05;4.93;;;16.10;99.90;;;;;;5069209;28;20033;-48
2022/06/06 07:50:47;;;;;;;8.85;4.47;;;16.10;99.90;;;;;;5069438;28;20732;-49
2022/06/06 07:53:41;;;;;;;7.97;3.30;;;16.30;99.90;;;;;;5050766;28;20037;-48
2022/06/06 07:56:33;;;;;;;8.18;3.03;;;16.20;99.90;;;;;;5068775;28;20056;-50
2022/06/06 07:59:20;;;;;;;7.70;3.08;;;16.50;99.90;;;;;;5051133;28;20029;-49
2022/06/06 08:01:51;;;;;;;8.13;3.53;;;16.50;99.90;;;;;;5069474;28;20032;-51
2022/06/06 08:04:49;;;;;;;10.82;4.70;;;16.70;99.90;;;;;;5069199;28;20444;-49
2022/06/06 08:07:44;;;;;;;8.43;3.60;;;16.70;99.90;;;;;;5069342;28;20500;-50
2022/06/06 08:10:40;;;;;;;8.38;3.83;;;16.70;99.90;;;;;;5069234;28;20033;-48
2022/06/06 08:13:06;;;;;;;8.07;3.25;;;16.60;99.90;;;;;;5069398;28;20414;-46
2022/06/06 08:15:52;;;;;;;8.88;3.28;;;16.30;99.90;;;;;;5069171;28;20043;-50
2022/06/06 08:18:34;;;;;;;7.38;2.88;;;16.30;99.90;;;;;;5069038;28;20194;-52
2022/06/06 08:21:35;;;;;;;8.93;2.60;;;16.40;99.90;;;;;;5067286;28;20048;-48
2022/06/06 08:24:05;;;;;;;7.47;2.55;;;16.60;99.90;;;;;;5053735;28;20481;-51
2022/06/06 08:26:37;;;;;;;6.55;2.40;;;16.90;99.90;;;;;;5067579;28;20146;-49
2022/06/06 08:29:06;;;;;;;5.85;2.40;;;17.00;99.90;;;;;;5068062;28;20035;-50
2022/06/06 08:31:32;;;;;;;6.40;2.20;;;17.00;99.90;;;;;;5068176;28;20043;-50
2022/06/06 08:33:58;;;;;;;6.05;2.30;;;16.80;99.90;;;;;;5066473;28;20041;-51
2022/06/06 08:36:35;;;;;;;5.68;2.45;;;16.70;99.90;;;;;;5068557;28;20028;-51
2022/06/06 08:39:15;;;;;;;5.72;2.60;;;16.80;99.90;;;;;;5066024;28;20064;-47
2022/06/06 08:41:53;;;;;;;8.60;2.35;;;16.70;99.90;;;;;;5066941;28;20040;-48
2022/06/06 08:44:32;;;;;;;6.03;2.20;;;16.50;99.90;;;;;;5064582;28;20037;-47
2022/06/06 08:47:12;;;;;;;9.93;2.97;;;16.60;99.90;;;;;;5048245;28;20035;-48
2022/06/06 08:52:56;;;;;;;5.43;2.88;;;16.50;99.90;;;;;;5061753;28;20043;-52
2022/06/06 08:56:05;;;;;;;6.55;2.28;;;16.40;99.90;;;;;;5044398;28;20032;-50
2022/06/06 08:58:58;;;;;;;8.43;2.75;;;16.60;99.90;;;;;;5063541;28;20056;-50
2022/06/06 09:01:39;;;;;;;8.13;3.40;;;16.60;99.90;;;;;;5058911;28;20075;-50
2022/06/06 09:04:11;;;;;;;8.35;3.88;;;16.50;99.90;;;;;;5062658;28;20041;-52
2022/06/06 09:07:14;;;;;;;11.18;4.40;;;16.50;99.90;;;;;;5059476;28;20036;-48
2022/06/06 09:09:53;;;;;;;9.60;4.55;;;16.40;99.90;;;;;;5056899;28;20037;-49
2022/06/06 09:12:33;;;;;;;9.60;5.22;;;16.30;99.90;;;;;;5058329;28;20119;-49
2022/06/06 09:15:40;;;;;;;8.15;3.97;;;16.30;99.90;;;;;;5043420;28;20033;-49
2022/06/06 09:18:15;;;;;;;9.85;4.75;;;16.10;99.90;;;;;;5061249;28;20118;-48
2022/06/06 09:20:58;;;;;;;18.10;4.95;;;15.90;99.90;;;;;;5056623;28;20068;-50
2022/06/06 09:23:30;;;;;;;12.65;5.30;;;15.80;99.90;;;;;;5059559;28;20063;-49
2022/06/06 09:26:18;;;;;;;8.52;3.58;;;15.80;99.90;;;;;;5051560;28;20039;-53
2022/06/06 09:29:08;;;;;;;5.85;3.95;;;16.10;99.90;;;;;;5058685;28;20025;-50
2022/06/06 09:31:36;;;;;;;9.85;3.72;;;16.40;99.90;;;;;;5049946;28;20526;-53
2022/06/06 09:34:27;;;;;;;9.65;3.20;;;16.40;99.90;;;;;;5059166;28;20051;-49
2022/06/06 09:37:31;;;;;;;4.15;2.40;;;16.30;99.90;;;;;;5062569;28;20048;-48
2022/06/06 09:40:27;;;;;;;5.50;3.20;;;16.00;99.90;;;;;;5057781;28;20373;-50
2022/06/06 09:43:21;;;;;;;8.10;3.53;;;15.50;99.90;;;;;;5060313;28;20051;-51
2022/06/06 09:46:23;;;;;;;7.05;3.72;;;15.10;99.90;;;;;;5059387;28;20045;-52
2022/06/06 09:48:52;;;;;;;7.38;3.60;;;15.00;99.90;;;;;;5057488;28;20055;-48
2022/06/06 09:51:29;;;;;;;10.32;5.53;;;15.20;99.90;;;;;;5059576;28;20085;-50
2022/06/06 10:00:50;;;;;;;6.97;3.38;;;16.40;99.90;;;;;;5062680;28;20036;-49
2022/06/06 10:03:35;;;;;;;8.05;3.05;;;16.40;99.90;;;;;;5060739;28;20553;-52
2022/06/06 10:06:19;;;;;;;;;;;16.20;99.90;;;;;;5062117;28;20033;-50
2022/06/06 10:09:13;;;;;;;5.78;3.00;;;16.10;99.90;;;;;;5058460;28;20423;-51
2022/06/06 10:12:17;;;;;;;6.13;3.35;;;16.00;99.90;;;;;;5058512;28;20100;-48
2022/06/06 10:15:08;;;;;;;7.53;4.05;;;16.20;99.90;;;;;;5062300;28;20037;-47
2022/06/06 10:17:55;;;;;;;7.03;4.07;;;16.20;99.90;;;;;;5057083;28;20096;-48
2022/06/06 10:20:52;;;;;;;7.75;4.60;;;16.30;99.90;;;;;;5058343;28;20044;-50
2022/06/06 10:23:34;;;;;;;6.22;4.07;;;16.30;99.90;;;;;;5051308;28;20057;-50
2022/06/06 10:26:03;;;;;;;8.80;3.53;;;15.90;99.90;;;;;;5044301;28;20260;-50
2022/06/06 10:29:00;;;;;;;6.25;3.85;;;15.80;99.90;;;;;;5065384;28;20033;-49
2022/06/06 10:31:52;;;;;;;6.72;3.00;;;15.80;99.90;;;;;;5066394;28;20090;-48
2022/06/06 10:35:01;;;;;;;6.85;2.85;;;16.10;99.90;;;;;;5066497;28;20037;-52
2022/06/06 10:37:44;;;;;;;7.40;3.80;;;16.40;99.90;;;;;;5065231;28;20036;-50
2022/06/06 10:40:48;;;;;;;6.22;4.70;;;16.80;99.90;;;;;;5067583;28;20390;-53
2022/06/06 10:43:29;;;;;;;6.10;3.92;;;16.70;99.90;;;;;;5031591;28;20076;-51
2022/06/06 10:46:20;;;;;;;8.38;4.47;;;16.30;99.90;;;;;;5069566;28;20048;-51
2022/06/06 10:48:48;;;;;;;7.68;4.05;;;16.20;99.90;;;;;;5061918;28;20059;-49
2022/06/06 10:54:15;;;;;;;7.50;3.30;;;15.90;99.90;;;;;;5062348;28;20066;-52
2022/06/06 10:57:05;;;;;;;6.25;2.40;;;15.70;99.90;;;;;;5064971;28;20048;-52
2022/06/06 11:00:03;;;;;;;5.57;2.45;;;15.80;99.90;;;;;;5062704;28;20040;-48
2022/06/06 11:02:55;;;;;;;4.95;2.97;;;15.70;99.90;;;;;;5046475;28;20082;-51
2022/06/06 11:05:27;;;;;;;4.60;2.58;;;16.40;99.90;;;;;;5064161;28;20079;-50
2022/06/06 11:08:13;;;;;;;5.13;2.53;;;16.50;99.90;;;;;;5045781;28;20025;-48
2022/06/06 11:10:45;;;;;;;6.25;2.92;;;16.70;99.90;;;;;;5063396;28;20063;-48
2022/06/06 11:13:35;;;;;;;7.55;3.33;;;16.80;99.90;;;;;;5061620;28;20041;-51
2022/06/06 11:16:13;;;;;;;8.07;3.00;;;17.00;99.90;;;;;;5064150;28;20036;-51
2022/06/06 11:18:42;;;;;;;6.47;3.10;;;17.20;99.90;;;;;;5063467;28;20045;-52
2022/06/06 11:21:28;;;;;;;7.75;3.30;;;17.50;99.90;;;;;;5059342;28;20044;-49
2022/06/06 11:24:11;;;;;;;4.82;2.03;;;17.90;99.90;;;;;;5044320;28;20402;-53
2022/06/06 11:27:10;;;;;;;6.15;1.92;;;18.20;99.90;;;;;;5061798;28;20102;-51
2022/06/06 11:30:01;;;;;;;5.03;1.60;;;18.20;99.90;;;;;;5060034;28;20039;-51
2022/06/06 11:33:05;;;;;;;5.13;1.52;;;18.10;99.90;;;;;;5059447;28;20037;-49
2022/06/06 11:35:41;;;;;;;5.10;1.20;;;18.20;99.90;;;;;;5063123;28;20051;-50
2022/06/06 11:38:34;;;;;;;4.10;1.10;;;18.70;99.90;;;;;;5064314;28;20068;-53
2022/06/06 11:41:12;;;;;;;2.80;1.02;;;18.60;99.90;;;;;;5064915;28;20044;-52
2022/06/06 11:43:58;;;;;;;3.38;1.10;;;18.10;99.90;;;;;;5063111;28;20384;-53
2022/06/06 11:47:02;;;;;;;2.90;1.00;;;18.20;99.90;;;;;;5069288;28;20063;-52
2022/06/06 11:49:56;;;;;;;2.63;0.80;;;18.50;99.90;;;;;;5069222;28;20047;-51
2022/06/06 11:52:43;;;;;;;2.72;0.85;;;17.90;99.90;;;;;;5068262;28;20799;-51
2022/06/06 11:55:32;;;;;;;2.15;0.60;;;17.70;99.90;;;;;;5068991;28;20411;-48
2022/06/06 11:58:19;;;;;;;4.75;0.82;;;17.70;99.90;;;;;;5068993;28;20044;-48
2022/06/06 12:01:01;;;;;;;2.60;0.77;;;17.90;99.90;;;;;;5069037;28;20029;-51
2022/06/06 12:03:42;;;;;;;3.90;1.00;;;18.40;99.90;;;;;;5069033;28;20044;-53
2022/06/06 12:06:17;;;;;;;2.85;0.90;;;18.30;99.90;;;;;;5068211;28;20484;-49
2022/06/06 12:08:49;;;;;;;3.13;0.90;;;18.30;99.90;;;;;;5068898;28;20033;-50
2022/06/06 12:11:39;;;;;;;4.45;1.60;;;18.40;99.90;;;;;;5068000;28;20502;-51
2022/06/06 12:14:33;;;;;;;6.50;1.60;;;18.20;99.90;;;;;;5068249;28;20608;-52
2022/06/06 12:17:27;;;;;;;3.97;1.70;;;18.30;99.90;;;;;;5026250;28;20044;-51
2022/06/06 12:20:09;;;;;;;4.80;1.67;;;18.30;99.90;;;;;;5028962;28;20582;-50
2022/06/06 12:22:35;;;;;;;4.70;2.00;;;18.40;99.90;;;;;;5027706;28;20844;-50
2022/06/06 12:25:28;;;;;;;4.32;1.90;;;18.20;99.90;;;;;;5026443;28;20049;-51
2022/06/06 12:28:18;;;;;;;4.97;1.73;;;18.30;99.90;;;;;;5026649;28;20034;-50
2022/06/06 12:31:19;;;;;;;5.03;1.95;;;18.40;99.90;;;;;;5025769;28;20109;-49
2022/06/06 12:34:07;;;;;;;3.55;1.88;;;18.20;99.90;;;;;;5028024;28;20053;-51
2022/06/06 12:37:02;;;;;;;5.15;1.83;;;17.80;99.90;;;;;;5021479;28;20041;-50
2022/06/06 12:39:41;;;;;;;3.80;1.85;;;17.80;99.90;;;;;;5017107;28;20125;-51
2022/06/06 12:42:25;;;;;;;3.35;1.65;;;17.60;99.90;;;;;;5021371;28;20034;-50
2022/06/06 12:45:29;;;;;;;3.53;1.33;;;17.60;99.90;;;;;;5020349;28;20103;-52
2022/06/06 12:48:38;;;;;;;2.35;1.10;;;17.70;99.90;;;;;;5018848;28;20042;-50
2022/06/06 12:51:18;;;;;;;2.85;1.35;;;17.40;99.90;;;;;;5017154;28;20160;-52
2022/06/06 12:54:12;;;;;;;3.67;0.95;;;17.40;99.90;;;;;;5021448;28;20033;-48
2022/06/06 12:56:53;;;;;;;3.47;1.20;;;17.30;99.90;;;;;;5016912;28;20029;-50
2022/06/06 12:59:24;;;;;;;3.38;1.38;;;17.40;99.90;;;;;;5022842;28;20041;-52
2022/06/06 13:02:18;;;;;;;3.03;1.73;;;17.30;99.90;;;;;;5020290;28;20034;-51
2022/06/06 13:05:09;;;;;;;6.13;1.77;;;17.30;99.90;;;;;;5021766;28;20095;-49
2022/06/06 13:07:43;;;;;;;4.25;2.00;;;17.20;99.90;;;;;;5020320;28;20058;-50
2022/06/06 13:10:17;;;;;;;6.82;2.40;;;17.10;99.90;;;;;;5022403;28;20708;-49
2022/06/06 13:12:58;;;;;;;4.90;3.08;;;17.00;99.90;;;;;;5021983;28;20445;-54
2022/06/06 13:15:46;;;;;;;7.88;3.63;;;16.70;99.90;;;;;;5021140;28;20044;-49
2022/06/06 13:18:42;;;;;;;8.73;4.40;;;16.50;99.90;;;;;;5039482;28;20503;-49
2022/06/06 13:21:24;;;;;;;6.63;3.95;;;16.40;99.90;;;;;;5060910;28;20052;-48
2022/06/06 13:24:07;;;;;;;8.80;4.53;;;16.10;99.90;;;;;;5061973;28;20111;-50
2022/06/06 13:26:51;;;;;;;7.78;4.60;;;16.00;99.90;;;;;;5059630;28;20032;-47
2022/06/06 13:29:35;;;;;;;6.03;4.30;;;15.90;99.90;;;;;;5061908;28;20126;-48
2022/06/06 13:32:27;;;;;;;8.47;4.40;;;15.70;99.90;;;;;;5044498;28;20063;-48
2022/06/06 13:35:19;;;;;;;7.88;3.40;;;15.50;99.90;;;;;;5045847;28;20040;-47
2022/06/06 13:38:31;;;;;;;5.32;3.28;;;15.40;99.90;;;;;;5062541;28;20367;-54
2022/06/06 13:41:02;;;;;;;4.60;2.67;;;15.40;99.90;;;;;;5063136;28;20377;-52
2022/06/06 13:43:37;;;;;;;7.28;3.88;;;15.30;99.90;;;;;;5062862;28;20554;-53
2022/06/06 13:46:21;;;;;;;6.95;3.70;;;15.50;99.90;;;;;;5061477;28;20361;-49
2022/06/06 13:49:02;;;;;;;5.50;3.17;;;15.60;99.90;;;;;;5041327;28;20108;-46
2022/06/06 13:51:36;;;;;;;6.10;3.25;;;15.50;99.90;;;;;;5058446;28;20055;-48
2022/06/06 13:54:05;;;;;;;5.95;3.97;;;15.50;99.90;;;;;;5062063;28;20491;-48
2022/06/06 13:56:42;;;;;;;10.30;3.92;;;15.30;99.90;;;;;;5062284;28;20048;-48
2022/06/06 13:59:25;;;;;;;8.35;4.32;;;15.40;99.90;;;;;;5044209;28;20128;-51
2022/06/06 14:02:06;;;;;;;6.82;4.97;;;15.50;99.90;;;;;;5059848;28;20784;-51
2022/06/06 14:04:31;;;;;;;7.53;4.78;;;15.60;99.90;;;;;;5061105;28;20032;-49
2022/06/06 14:07:12;;;;;;;9.13;4.82;;;15.30;99.90;;;;;;5060671;28;20047;-49
2022/06/06 14:09:40;;;;;;;12.73;5.93;;;15.30;99.90;;;;;;5058180;28;20045;-50
2022/06/06 14:12:19;;;;;;;9.25;5.65;;;15.20;99.90;;;;;;5059125;28;20051;-49
2022/06/06 14:14:46;;;;;;;10.82;5.57;;;15.20;99.90;;;;;;5065625;28;20048;-48
2022/06/06 14:17:13;;;;;;;10.00;6.25;;;15.20;99.90;;;;;;5027312;28;20037;-47